Time;durP1;ratioP1;P1;durP2;ratioP2;P2;SDS_P1;SDS_P2;PMS_P1;PMS_P2;Temp;Humidity;BMP_temperature;BMP_pressure;BME280_temperature;BME280_humidity;BME280_pressure;Samples;Min_cycle;Max_cycle;Signal;HPM_P1;HPM_P2
2021/08/24 00:02:08;;;;;;;;;;;13.50;1.00;;;;;;5008064;28;20258;-66
2021/08/24 00:04:33;;;;;;;;;;;13.50;1.00;;;;;;5009471;28;19909;-66
2021/08/24 00:06:59;;;;;;;;;;;13.50;1.00;;;;;;5009247;28;19910;-65
2021/08/24 00:09:24;;;;;;;;;;;13.50;1.00;;;;;;5009323;28;19957;-66
2021/08/24 00:11:50;;;;;;;;;;;13.60;1.00;;;;;;5008907;28;19910;-66
2021/08/24 00:14:15;;;;;;;;;;;13.70;1.00;;;;;;5009023;28;19909;-66
2021/08/24 00:16:41;;;;;;;;;;;13.70;1.00;;;;;;5008838;28;19917;-65
2021/08/24 00:19:11;;;;;;;;;;;13.60;1.00;;;;;;5009558;28;19955;-65
2021/08/24 00:21:38;;;;;;;;;;;13.60;1.00;;;;;;5008985;28;19944;-66
2021/08/24 00:24:04;;;;;;;;;;;13.60;1.00;;;;;;5008685;28;19988;-65
2021/08/24 00:26:29;;;;;;;;;;;13.50;1.00;;;;;;5001728;28;19910;-65
2021/08/24 00:28:55;;;;;;;;;;;13.40;1.00;;;;;;5007456;28;19914;-66
2021/08/24 00:31:20;;;;;;;;;;;13.40;1.00;;;;;;5008885;28;19987;-65
2021/08/24 00:33:46;;;;;;;;;;;13.30;1.00;;;;;;5008486;28;20414;-65
2021/08/24 00:36:13;;;;;;;;;;;13.30;1.00;;;;;;5009179;28;20059;-66
2021/08/24 00:38:39;;;;;;;;;;;13.20;1.00;;;;;;4994307;28;19961;-66
2021/08/24 00:41:04;;;;;;;;;;;13.20;1.00;;;;;;4989872;28;19910;-65
2021/08/24 00:43:31;;;;;;;;;;;13.20;1.00;;;;;;4988645;28;20263;-66
2021/08/24 00:46:00;;;;;;;;;;;13.10;1.00;;;;;;4988448;28;19976;-66
2021/08/24 00:48:30;;;;;;;;;;;13.10;1.00;;;;;;4989149;28;19914;-66
2021/08/24 00:50:56;;;;;;;;;;;13.10;1.00;;;;;;5001696;28;19917;-66
2021/08/24 00:53:23;;;;;;;;;;;13.10;1.00;;;;;;5008430;28;19918;-66
2021/08/24 00:55:49;;;;;;;;;;;13.00;1.00;;;;;;5008932;28;19914;-66
2021/08/24 00:58:15;;;;;;;;;;;13.00;1.00;;;;;;5008678;28;19964;-66
2021/08/24 01:00:42;;;;;;;;;;;13.00;1.00;;;;;;5008482;28;19936;-65
2021/08/24 01:03:09;;;;;;;;;;;13.00;1.00;;;;;;5008531;28;19910;-65
2021/08/24 01:05:36;;;;;;;;;;;13.00;1.00;;;;;;5008797;28;20004;-66
2021/08/24 01:08:17;;;;;;;;;;;12.90;1.00;;;;;;5009168;28;20025;-65
2021/08/24 01:10:45;;;;;;;;;;;12.90;1.00;;;;;;5008919;28;20354;-66
2021/08/24 01:13:23;;;;;;;;;;;12.90;1.00;;;;;;5008142;28;20290;-66
2021/08/24 01:16:07;;;;;;;;;;;12.90;1.00;;;;;;5008066;28;19918;-66
2021/08/24 01:18:34;;;;;;;;;;;12.90;1.00;;;;;;5008724;28;19913;-65
2021/08/24 01:21:27;;;;;;;;;;;12.90;1.00;;;;;;5009091;28;19961;-65
2021/08/24 01:23:58;;;;;;;;;;;12.90;1.00;;;;;;5008528;28;19910;-65
2021/08/24 01:26:30;;;;;;;;;;;13.00;1.00;;;;;;5008257;28;19918;-65
2021/08/24 01:29:34;;;;;;;;;;;13.00;1.00;;;;;;5009258;28;19920;-66
2021/08/24 01:31:59;;;;;;;;;;;13.00;1.00;;;;;;4985955;28;19945;-65
2021/08/24 01:34:43;;;;;;;;;;;13.10;1.00;;;;;;4986328;28;20382;-65
2021/08/24 01:37:29;;;;;;;;;;;13.20;1.00;;;;;;4997784;28;20401;-65
2021/08/24 01:39:59;;;;;;;;;;;13.20;1.00;;;;;;5003225;28;19929;-66
2021/08/24 01:42:27;;;;;;;;;;;13.20;1.00;;;;;;5011243;28;19920;-65
2021/08/24 01:44:52;;;;;;;;;;;13.20;1.00;;;;;;5010502;28;20393;-64
2021/08/24 01:47:20;;;;;;;;;;;13.20;1.00;;;;;;5011942;28;19957;-65
2021/08/24 01:49:49;;;;;;;;;;;13.20;1.00;;;;;;5011589;28;19917;-65
2021/08/24 01:52:18;;;;;;;;;;;13.20;1.00;;;;;;5003331;28;19910;-65
2021/08/24 01:54:49;;;;;;;;;;;13.20;1.00;;;;;;5011501;28;19921;-65
2021/08/24 01:57:17;;;;;;;;;;;13.20;1.00;;;;;;5011437;28;19910;-65
2021/08/24 01:59:55;;;;;;;;;;;13.10;1.00;;;;;;5011813;28;19917;-65
2021/08/24 02:02:27;;;;;;;;;;;13.10;1.00;;;;;;5011724;28;19910;-65
2021/08/24 02:04:52;;;;;;;;;;;13.10;1.00;;;;;;5011457;28;19913;-65
2021/08/24 02:07:19;;;;;;;;;;;13.00;1.00;;;;;;5011941;28;19923;-65
2021/08/24 02:09:46;;;;;;;;;;;13.00;1.00;;;;;;5011888;28;19920;-66
2021/08/24 02:12:13;;;;;;;;;;;12.90;1.00;;;;;;5011131;28;20004;-65
2021/08/24 02:14:40;;;;;;;;;;;12.80;1.00;;;;;;5011751;28;19914;-65
2021/08/24 02:17:08;;;;;;;;;;;12.70;1.00;;;;;;5011138;28;19909;-65
2021/08/24 02:19:38;;;;;;;;;;;12.70;1.00;;;;;;5011638;28;19920;-65
2021/08/24 02:22:06;;;;;;;;;;;12.60;1.00;;;;;;5011079;28;20285;-65
2021/08/24 02:24:36;;;;;;;;;;;12.50;1.00;;;;;;5011379;28;20129;-65
2021/08/24 02:27:04;;;;;;;;;;;12.50;1.00;;;;;;5010802;28;19963;-65
2021/08/24 02:29:30;;;;;;;;;;;12.50;1.00;;;;;;5011267;28;19936;-65
2021/08/24 02:32:06;;;;;;;;;;;12.50;1.00;;;;;;5010651;28;20378;-65
2021/08/24 02:34:50;;;;;;;;;;;12.50;1.00;;;;;;5011837;28;19917;-65
2021/08/24 02:37:20;;;;;;;;;;;12.50;1.00;;;;;;5011501;28;19909;-66
2021/08/24 02:39:50;;;;;;;;;;;12.40;1.00;;;;;;5011686;28;19996;-65
2021/08/24 02:42:17;;;;;;;;;;;12.40;1.00;;;;;;5010568;28;19917;-66
2021/08/24 02:44:52;;;;;;;;;;;12.30;1.00;;;;;;5011286;28;19925;-67
2021/08/24 02:47:18;;;;;;;;;;;12.30;1.00;;;;;;5010206;28;19960;-66
2021/08/24 02:49:44;;;;;;;;;;;12.30;1.00;;;;;;5010659;28;20012;-65
2021/08/24 02:52:10;;;;;;;;;;;12.20;1.00;;;;;;5009624;28;20028;-65
2021/08/24 02:54:40;;;;;;;;;;;12.20;1.00;;;;;;5011281;28;20051;-65
2021/08/24 02:57:06;;;;;;;;;;;12.20;1.00;;;;;;5010656;28;19948;-66
2021/08/24 02:59:32;;;;;;;;;;;12.20;1.00;;;;;;5010477;28;19948;-64
2021/08/24 03:01:58;;;;;;;;;;;12.10;1.00;;;;;;5009938;28;19914;-64
2021/08/24 03:04:23;;;;;;;;;;;12.10;1.00;;;;;;5011091;28;19975;-66
2021/08/24 03:06:53;;;;;;;;;;;12.20;1.00;;;;;;5010570;28;19940;-65
2021/08/24 03:09:19;;;;;;;;;;;12.20;1.00;;;;;;5010952;28;20333;-64
2021/08/24 03:11:47;;;;;;;;;;;12.10;1.00;;;;;;5009916;28;20321;-65
2021/08/24 03:14:18;;;;;;;;;;;12.10;1.00;;;;;;5010971;28;19909;-64
2021/08/24 03:16:47;;;;;;;;;;;12.10;1.00;;;;;;5009715;28;19933;-64
2021/08/24 03:19:15;;;;;;;;;;;12.10;1.00;;;;;;5010610;28;20578;-66
2021/08/24 03:21:40;;;;;;;;;;;12.10;1.00;;;;;;5010672;28;20274;-65
2021/08/24 03:24:08;;;;;;;;;;;12.00;1.00;;;;;;5010123;28;19913;-64
2021/08/24 03:26:35;;;;;;;;;;;12.00;1.00;;;;;;5003363;28;20406;-64
2021/08/24 03:29:11;;;;;;;;;;;12.00;1.00;;;;;;5008311;28;19950;-65
2021/08/24 03:31:38;;;;;;;;;;;12.00;1.00;;;;;;5009565;28;19936;-64
2021/08/24 03:34:04;;;;;;;;;;;12.00;1.00;;;;;;5009834;28;19913;-65
2021/08/24 03:36:30;;;;;;;;;;;12.00;1.00;;;;;;5009437;28;19936;-65
2021/08/24 03:38:55;;;;;;;;;;;12.00;1.00;;;;;;4993447;28;20005;-65
2021/08/24 03:41:21;;;;;;;;;;;12.00;1.00;;;;;;4990838;28;19920;-65
2021/08/24 03:43:46;;;;;;;;;;;11.90;1.00;;;;;;4990310;28;19914;-65
2021/08/24 03:46:12;;;;;;;;;;;11.90;1.00;;;;;;4989798;28;20264;-64
2021/08/24 03:48:37;;;;;;;;;;;11.90;1.00;;;;;;4989955;28;19986;-65
2021/08/24 03:51:03;;;;;;;;;;;11.90;1.00;;;;;;5004440;28;19910;-65
2021/08/24 03:53:28;;;;;;;;;;;11.80;1.00;;;;;;5009144;28;19909;-65
2021/08/24 03:55:54;;;;;;;;;;;11.80;1.00;;;;;;5010045;28;19917;-64
2021/08/24 03:58:19;;;;;;;;;;;11.80;1.00;;;;;;5009397;28;19909;-64
2021/08/24 04:00:46;;;;;;;;;;;11.70;1.00;;;;;;5008975;28;19910;-63
2021/08/24 04:03:12;;;;;;;;;;;11.70;1.00;;;;;;5009075;28;19960;-64
2021/08/24 04:05:37;;;;;;;;;;;11.80;1.00;;;;;;5009316;28;19909;-65
2021/08/24 04:08:03;;;;;;;;;;;11.70;1.00;;;;;;5009794;28;20027;-64
2021/08/24 04:10:28;;;;;;;;;;;11.70;1.00;;;;;;5009597;28;19996;-65
2021/08/24 04:12:54;;;;;;;;;;;11.70;1.00;;;;;;5008432;28;19924;-66
2021/08/24 04:15:19;;;;;;;;;;;11.70;1.00;;;;;;5008667;28;19964;-65
2021/08/24 04:17:45;;;;;;;;;;;11.70;1.00;;;;;;5006679;28;19917;-67
2021/08/24 04:20:12;;;;;;;;;;;11.80;1.00;;;;;;5009092;28;19913;-66
2021/08/24 04:22:41;;;;;;;;;;;11.80;1.00;;;;;;5008899;28;20295;-66
2021/08/24 04:25:06;;;;;;;;;;;11.90;1.00;;;;;;5009510;28;19919;-66
2021/08/24 04:27:32;;;;;;;;;;;12.00;1.00;;;;;;5005609;28;20020;-66
2021/08/24 04:29:58;;;;;;;;;;;12.10;1.00;;;;;;5007097;28;20346;-66
2021/08/24 04:32:25;;;;;;;;;;;12.20;1.00;;;;;;5006178;28;19921;-66
2021/08/24 04:34:51;;;;;;;;;;;12.40;1.00;;;;;;5007875;28;19960;-66
2021/08/24 04:37:17;;;;;;;;;;;12.50;1.00;;;;;;5010086;28;19917;-66
2021/08/24 04:39:42;;;;;;;;;;;12.60;1.00;;;;;;5008861;28;19914;-67
2021/08/24 04:42:08;;;;;;;;;;;12.60;1.00;;;;;;5008407;28;19909;-66
2021/08/24 04:44:33;;;;;;;;;;;12.80;1.00;;;;;;5009794;28;20346;-66
2021/08/24 04:46:59;;;;;;;;;;;12.90;1.00;;;;;;5006591;28;19929;-66
2021/08/24 04:49:24;;;;;;;;;;;13.00;1.00;;;;;;5007150;28;19914;-72
2021/08/24 04:51:50;;;;;;;;;;;13.00;1.00;;;;;;5010392;28;19942;-72
2021/08/24 04:54:16;;;;;;;;;;;13.00;1.00;;;;;;5008980;28;19958;-73
2021/08/24 04:56:41;;;;;;;;;;;13.10;1.00;;;;;;5010043;28;19921;-73
2021/08/24 04:59:07;;;;;;;;;;;13.20;1.00;;;;;;5010476;28;19913;-72
2021/08/24 05:01:32;;;;;;;;;;;13.20;1.00;;;;;;5010213;28;20328;-71
2021/08/24 05:03:58;;;;;;;;;;;13.30;1.00;;;;;;5011911;28;19914;-71
2021/08/24 05:06:23;;;;;;;;;;;13.30;1.00;;;;;;5008048;28;19914;-72
2021/08/24 05:08:49;;;;;;;;;;;13.40;1.00;;;;;;5010195;28;20418;-66
2021/08/24 05:11:14;;;;;;;;;;;13.40;1.00;;;;;;5009748;28;19909;-67
2021/08/24 05:13:40;;;;;;;;;;;13.50;1.00;;;;;;5008051;28;19909;-67
2021/08/24 05:16:06;;;;;;;;;;;13.50;1.00;;;;;;5002585;28;19914;-67
2021/08/24 05:18:31;;;;;;;;;;;13.50;1.00;;;;;;4993457;28;20012;-67
2021/08/24 05:21:01;;;;;;;;;;;13.60;1.00;;;;;;4993808;28;19968;-66
2021/08/24 05:23:26;;;;;;;;;;;13.60;1.00;;;;;;5028517;22;19933;-66
2021/08/24 05:25:52;;;;;;;;;;;13.70;1.00;;;;;;5009687;28;20282;-66
2021/08/24 05:28:17;;;;;;;;;;;13.70;1.00;;;;;;5009037;28;19909;-66
2021/08/24 05:30:43;;;;;;;;;;;13.70;1.00;;;;;;5007241;28;20304;-66
2021/08/24 05:33:08;;;;;;;;;;;13.70;1.00;;;;;;5018995;28;19909;-66
2021/08/24 05:35:34;;;;;;;;;;;13.70;1.00;;;;;;5029477;28;19909;-66
2021/08/24 05:37:59;;;;;;;;;;;13.70;1.00;;;;;;5019894;28;20008;-66
2021/08/24 05:40:25;;;;;;;;;;;13.70;1.00;;;;;;5009745;28;20428;-66
2021/08/24 05:42:50;;;;;;;;;;;13.70;1.00;;;;;;5006142;28;19957;-67
2021/08/24 05:45:16;;;;;;;;;;;13.80;1.00;;;;;;5006978;28;19925;-66
2021/08/24 05:47:41;;;;;;;;;;;13.80;1.00;;;;;;5001427;28;19960;-65
2021/08/24 05:50:07;;;;;;;;;;;13.80;1.00;;;;;;5008350;28;19929;-64
2021/08/24 05:52:32;;;;;;;;;;;13.90;99.90;;;;;;5000569;28;19918;-65
2021/08/24 05:54:58;;;;;;;;;;;13.90;99.90;;;;;;5008411;28;19913;-65
2021/08/24 05:57:23;;;;;;;;;;;13.90;99.90;;;;;;5009287;28;19945;-65
2021/08/24 05:59:49;;;;;;;;;;;14.00;99.90;;;;;;5008488;28;19935;-65
2021/08/24 06:02:14;;;;;;;;;;;14.00;99.90;;;;;;5008433;28;19910;-65
2021/08/24 06:04:40;;;;;;;;;;;14.10;99.90;;;;;;5009202;28;19917;-65
2021/08/24 06:07:06;;;;;;;;;;;14.30;99.90;;;;;;5009393;28;19917;-66
2021/08/24 06:09:31;;;;;;;;;;;14.30;99.90;;;;;;5009073;28;20020;-66
2021/08/24 06:11:57;;;;;;;;;;;14.40;99.90;;;;;;5007633;28;19992;-65
2021/08/24 06:14:23;;;;;;;;;;;14.50;99.90;;;;;;5008869;28;20327;-66
2021/08/24 06:16:54;;;;;;;;;;;14.60;12.70;;;;;;5007659;28;19913;-65
2021/08/24 06:19:20;;;;;;;;;;;14.70;1.00;;;;;;5009218;28;19936;-66
2021/08/24 06:21:46;;;;;;;;;;;14.70;1.00;;;;;;5007967;28;20366;-66
2021/08/24 06:24:11;;;;;;;;;;;14.90;1.00;;;;;;5007478;28;19931;-66
2021/08/24 06:26:37;;;;;;;;;;;14.90;99.90;;;;;;5007780;28;19952;-66
2021/08/24 06:29:03;;;;;;;;;;;15.00;21.50;;;;;;5020352;28;20396;-67
2021/08/24 06:31:30;;;;;;;;;;;15.10;1.00;;;;;;5029775;28;19917;-64
2021/08/24 06:33:56;;;;;;;;;;;15.30;99.90;;;;;;5030107;28;19967;-66
2021/08/24 06:36:22;;;;;;;;;;;15.40;1.00;;;;;;5030292;28;19913;-67
2021/08/24 06:38:48;;;;;;;;;;;15.50;1.00;;;;;;5014478;28;19918;-67
2021/08/24 06:41:14;;;;;;;;;;;15.50;99.90;;;;;;5011056;28;19987;-66
2021/08/24 06:43:40;;;;;;;;;;;15.50;99.90;;;;;;5009734;28;19921;-66
2021/08/24 06:46:06;;;;;;;;;;;15.50;1.00;;;;;;5001802;28;19910;-65
2021/08/24 06:48:32;;;;;;;;;;;15.40;1.00;;;;;;5010185;28;19996;-65
2021/08/24 06:50:57;;;;;;;;;;;15.30;1.00;;;;;;5010474;28;19970;-65
2021/08/24 06:53:23;;;;;;;;;;;15.40;64.90;;;;;;5009778;28;20053;-67
2021/08/24 06:55:49;;;;;;;;;;;15.40;99.90;;;;;;5009110;28;20016;-67
2021/08/24 06:58:14;;;;;;;;;;;15.50;43.80;;;;;;5009922;28;19914;-66
2021/08/24 07:00:40;;;;;;;;;;;15.70;1.00;;;;;;5010027;28;20000;-65
2021/08/24 07:03:06;;;;;;;;;;;15.80;99.90;;;;;;5010408;28;19909;-66
2021/08/24 07:05:32;;;;;;;;;;;15.70;99.90;;;;;;5011158;28;19909;-64
2021/08/24 07:07:57;;;;;;;;;;;15.80;99.90;;;;;;5011113;28;20314;-64
2021/08/24 07:10:24;;;;;;;;;;;15.80;53.30;;;;;;5009883;28;19925;-65
2021/08/24 07:12:49;;;;;;;;;;;15.80;1.00;;;;;;5009496;28;19914;-65
2021/08/24 07:15:16;;;;;;;;;;;15.90;22.00;;;;;;5009597;28;19963;-65
2021/08/24 07:17:42;;;;;;;;;;;15.80;99.90;;;;;;5010573;28;19916;-65
2021/08/24 07:20:11;;;;;;;;;;;16.00;9.70;;;;;;5004161;28;19914;-64
2021/08/24 07:22:37;;;;;;;;;;;15.90;1.00;;;;;;4999542;28;19922;-65
2021/08/24 07:25:04;;;;;;;;;;;16.00;1.00;;;;;;4996014;28;19918;-64
2021/08/24 07:27:29;;;;;;;;;;;16.10;1.00;;;;;;4999091;28;19920;-64
2021/08/24 07:29:55;;;;;;;;;;;15.90;1.00;;;;;;5002782;28;19921;-63
2021/08/24 07:32:20;;;;;;;;;;;15.80;1.00;;;;;;4998317;28;20347;-65
2021/08/24 07:34:46;;;;;;;;;;;15.80;1.00;;;;;;5000234;28;19987;-64
2021/08/24 07:37:11;;;;;;;;;;;15.80;1.00;;;;;;4999604;28;19972;-64
2021/08/24 07:39:38;;;;;;;;;;;15.90;1.00;;;;;;4990262;28;19916;-64
2021/08/24 07:42:03;;;;;;;;;;;15.90;1.00;;;;;;4988909;28;20611;-63
2021/08/24 07:44:33;;;;;;;;;;;15.80;1.00;;;;;;4993335;28;19909;-66
2021/08/24 07:46:59;;;;;;;;;;;15.70;54.60;;;;;;5004693;28;20004;-63
2021/08/24 07:49:24;;;;;;;;;;;15.80;49.70;;;;;;5009842;28;20016;-64
2021/08/24 07:51:50;;;;;;;;;;;15.80;36.10;;;;;;4997598;28;19913;-66
2021/08/24 07:54:15;;;;;;;;;;;15.80;23.80;;;;;;4995856;28;19914;-66
2021/08/24 07:56:41;;;;;;;;;;;15.80;1.00;;;;;;5008891;28;19913;-66
2021/08/24 07:59:06;;;;;;;;;;;15.80;14.50;;;;;;5009837;28;20357;-66
2021/08/24 08:01:32;;;;;;;;;;;15.90;99.90;;;;;;5009263;28;19963;-65
2021/08/24 08:03:57;;;;;;;;;;;16.10;1.00;;;;;;5008967;28;20296;-65
2021/08/24 08:06:23;;;;;;;;;;;16.20;1.00;;;;;;5009425;28;19914;-65
2021/08/24 08:08:48;;;;;;;;;;;16.00;1.00;;;;;;5009486;28;19918;-64
2021/08/24 08:11:14;;;;;;;;;;;15.90;1.00;;;;;;5007956;28;19913;-65
2021/08/24 08:13:40;;;;;;;;;;;16.00;1.00;;;;;;5008339;28;20358;-64
2021/08/24 08:16:05;;;;;;;;;;;16.20;1.00;;;;;;5008910;28;20056;-66
2021/08/24 08:18:31;;;;;;;;;;;16.30;1.00;;;;;;5009293;28;20299;-66
2021/08/24 08:20:56;;;;;;;;;;;16.40;1.00;;;;;;5008857;28;19979;-66
2021/08/24 08:23:22;;;;;;;;;;;16.40;99.90;;;;;;5008883;28;19956;-65
2021/08/24 08:25:48;;;;;;;;;;;16.30;99.90;;;;;;5008998;28;19909;-67
2021/08/24 08:28:14;;;;;;;;;;;16.20;99.90;;;;;;5000766;28;19910;-66
2021/08/24 08:30:43;;;;;;;;;;;16.30;1.00;;;;;;5007493;28;19920;-63
2021/08/24 08:33:09;;;;;;;;;;;16.40;1.00;;;;;;5008180;28;20305;-67
2021/08/24 08:35:34;;;;;;;;;;;16.70;99.90;;;;;;5009030;28;19975;-66
2021/08/24 08:38:00;;;;;;;;;;;16.90;99.90;;;;;;5009234;28;19910;-66
2021/08/24 08:40:38;;;;;;;;;;;17.00;1.00;;;;;;5008745;28;20005;-66
2021/08/24 08:43:07;;;;;;;;;;;16.80;1.00;;;;;;5007776;28;20342;-66
2021/08/24 08:45:39;;;;;;;;;;;17.00;1.00;;;;;;5007990;28;19917;-65
2021/08/24 08:48:08;;;;;;;;;;;18.00;1.00;;;;;;5010066;28;20365;-65
2021/08/24 08:50:46;;;;;;;;;;;18.60;99.90;;;;;;5012661;28;19927;-66
2021/08/24 08:53:14;;;;;;;;;;;19.00;1.00;;;;;;5012136;28;20370;-67
2021/08/24 08:55:45;;;;;;;;;;;18.90;1.00;;;;;;5011474;28;19910;-66
2021/08/24 08:58:28;;;;;;;;;;;19.00;1.00;;;;;;5012067;28;20219;-67
2021/08/24 09:00:56;;;;;;;;;;;19.20;1.00;;;;;;5011117;28;19917;-65
2021/08/24 09:03:32;;;;;;;;;;;19.10;1.00;;;;;;5011658;28;19913;-66
2021/08/24 09:05:57;;;;;;;;;;;18.80;1.00;;;;;;5013072;28;19976;-67
2021/08/24 09:08:23;;;;;;;;;;;18.10;1.00;;;;;;5012597;28;20007;-67
2021/08/24 09:10:50;;;;;;;;;;;17.70;1.00;;;;;;5010215;28;20270;-67
2021/08/24 09:13:31;;;;;;;;;;;17.50;1.00;;;;;;5009580;28;19985;-67
2021/08/24 09:16:17;;;;;;;;;;;17.30;1.00;;;;;;5011562;28;19913;-67
2021/08/24 09:19:01;;;;;;;;;;;17.10;29.90;;;;;;5012370;28;19967;-66
2021/08/24 09:21:29;;;;;;;;;;;17.00;99.90;;;;;;5012426;28;19921;-67
2021/08/24 09:23:56;;;;;;;;;;;16.80;99.90;;;;;;5011874;28;19921;-67
2021/08/24 09:26:37;;;;;;;;;;;16.70;99.90;;;;;;5012220;28;20338;-66
2021/08/24 09:29:03;;;;;;;;;;;16.70;1.00;;;;;;5005340;28;19936;-66
2021/08/24 09:31:29;;;;;;;;;;;16.90;1.00;;;;;;5011094;28;19909;-66
2021/08/24 09:33:54;;;;;;;;;;;16.90;1.00;;;;;;5011413;28;20315;-65
2021/08/24 09:36:20;;;;;;;;;;;16.80;1.00;;;;;;5012435;28;20407;-67
2021/08/24 09:38:50;;;;;;;;;;;16.60;1.00;;;;;;5012213;28;20030;-67
2021/08/24 09:41:18;;;;;;;;;;;16.10;1.00;;;;;;5009752;28;19935;-68
2021/08/24 09:43:45;;;;;;;;;;;16.00;1.00;;;;;;5011331;28;20548;-67
2021/08/24 09:46:22;;;;;;;;;;;16.00;50.70;;;;;;5010595;28;19921;-67
2021/08/24 09:48:52;;;;;;;;;;;16.10;99.90;;;;;;5012348;28;20351;-66
2021/08/24 09:51:24;;;;;;;;;;;16.30;36.90;;;;;;5011308;28;20230;-67
2021/08/24 09:53:53;;;;;;;;;;;16.80;1.00;;;;;;5011141;28;20254;-67
2021/08/24 09:56:22;;;;;;;;;;;17.40;1.00;;;;;;5011296;28;19973;-64
2021/08/24 09:58:48;;;;;;;;;;;18.00;1.00;;;;;;5011722;28;20366;-67
2021/08/24 10:01:15;;;;;;;;;;;18.00;99.90;;;;;;5009711;28;20319;-67
2021/08/24 10:03:42;;;;;;;;;;;17.90;99.90;;;;;;5010801;28;20008;-66
2021/08/24 10:06:10;;;;;;;;;;;18.00;99.90;;;;;;5011104;28;19951;-66
2021/08/24 10:08:36;;;;;;;;;;;18.00;99.90;;;;;;5011357;28;19910;-67
2021/08/24 10:11:07;;;;;;;;;;;18.20;94.70;;;;;;5010764;28;20015;-65
2021/08/24 10:13:40;;;;;;;;;;;18.30;41.90;;;;;;5009841;28;19910;-67
2021/08/24 10:16:05;;;;;;;;;;;18.50;6.10;;;;;;5010829;28;20374;-66
2021/08/24 10:18:33;;;;;;;;;;;18.70;1.00;;;;;;5011419;28;19968;-67
2021/08/24 10:21:08;;;;;;;;;;;18.70;1.00;;;;;;5010714;28;20380;-65
2021/08/24 10:23:48;;;;;;;;;;;18.60;1.00;;;;;;5009721;28;20329;-67
2021/08/24 10:26:23;;;;;;;;;;;18.40;1.00;;;;;;5009309;28;20023;-66
2021/08/24 10:28:54;;;;;;;;;;;18.40;1.00;;;;;;5002940;28;19948;-65
2021/08/24 10:31:31;;;;;;;;;;;18.70;1.00;;;;;;5009985;28;19943;-64
2021/08/24 10:33:59;;;;;;;;;;;18.90;1.00;;;;;;5010550;28;19913;-64
2021/08/24 10:36:24;;;;;;;;;;;18.60;1.00;;;;;;5010935;28;20263;-64
2021/08/24 10:39:02;;;;;;;;;;;18.70;1.00;;;;;;5010761;28;19910;-64
2021/08/24 10:41:39;;;;;;;;;;;18.60;1.00;;;;;;5009995;28;19909;-64
2021/08/24 10:44:08;;;;;;;;;;;18.70;1.00;;;;;;5010086;28;20393;-64
2021/08/24 10:46:45;;;;;;;;;;;18.60;1.00;;;;;;5002721;28;19921;-64
2021/08/24 10:49:10;;;;;;;;;;;18.70;1.00;;;;;;5010609;28;20071;-64
2021/08/24 10:51:40;;;;;;;;;;;18.60;1.00;;;;;;5009854;28;20045;-65
2021/08/24 10:54:24;;;;;;;;;;;18.70;1.00;;;;;;5009815;28;19972;-64
2021/08/24 10:57:00;;;;;;;;;;;18.40;1.00;;;;;;5009758;28;19909;-64
2021/08/24 10:59:34;;;;;;;;;;;18.60;1.00;;;;;;5010352;28;20000;-65
2021/08/24 11:02:04;;;;;;;;;;;18.80;1.00;;;;;;5007603;28;20000;-65
2021/08/24 11:04:56;;;;;;;;;;;18.40;1.00;;;;;;5010825;28;19917;-65
2021/08/24 11:07:40;;;;;;;;;;;18.40;1.00;;;;;;5000914;28;20059;-65
2021/08/24 11:10:05;;;;;;;;;;;18.50;1.00;;;;;;4999851;28;20036;-64
2021/08/24 11:12:40;;;;;;;;;;;18.80;1.00;;;;;;4998870;28;20300;-65
2021/08/24 11:15:08;;;;;;;;;;;19.50;1.00;;;;;;4998796;28;19920;-65
2021/08/24 11:17:56;;;;;;;;;;;20.20;1.00;;;;;;5000442;28;19925;-64
2021/08/24 11:20:24;;;;;;;;;;;20.50;1.00;;;;;;4999718;28;19994;-65
2021/08/24 11:22:59;;;;;;;;;;;20.40;1.00;;;;;;4999242;28;19917;-65
2021/08/24 11:25:36;;;;;;;;;;;20.30;1.00;;;;;;4999259;28;19913;-65
2021/08/24 11:28:20;;;;;;;;;;;20.10;1.00;;;;;;5002492;28;19913;-65
2021/08/24 11:30:49;;;;;;;;;;;19.80;1.00;;;;;;4997156;28;19941;-64
2021/08/24 11:33:25;;;;;;;;;;;19.60;1.00;;;;;;5000410;28;19951;-64
2021/08/24 11:36:06;;;;;;;;;;;19.50;1.00;;;;;;4997200;28;19910;-65
2021/08/24 11:38:35;;;;;;;;;;;19.30;1.00;;;;;;4999623;28;19996;-64
2021/08/24 11:41:04;;;;;;;;;;;19.10;1.00;;;;;;4996574;28;19914;-63
2021/08/24 11:43:47;;;;;;;;;;;18.80;1.00;;;;;;4991652;28;19941;-65
2021/08/24 11:46:19;;;;;;;;;;;18.70;1.00;;;;;;5006505;28;19940;-65
2021/08/24 11:48:46;;;;;;;;;;;18.60;1.00;;;;;;5009957;28;19956;-65
2021/08/24 11:51:14;;;;;;;;;;;18.70;1.00;;;;;;5003272;28;19910;-65
2021/08/24 11:53:50;;;;;;;;;;;18.80;1.00;;;;;;5006313;28;19919;-64
2021/08/24 11:56:32;;;;;;;;;;;18.90;1.00;;;;;;5009267;28;19979;-69
2021/08/24 11:59:01;;;;;;;;;;;19.30;1.00;;;;;;5009557;28;20289;-66
2021/08/24 12:01:28;;;;;;;;;;;19.50;1.00;;;;;;5008736;28;19929;-66
2021/08/24 12:03:55;;;;;;;;;;;19.40;1.00;;;;;;5008467;28;19918;-64
2021/08/24 12:06:29;;;;;;;;;;;19.10;1.00;;;;;;5009655;28;19976;-65
2021/08/24 12:08:56;;;;;;;;;;;19.00;1.00;;;;;;5009778;28;20358;-65
2021/08/24 12:11:24;;;;;;;;;;;18.70;1.00;;;;;;5008814;28;19917;-64
2021/08/24 12:13:51;;;;;;;;;;;18.50;1.00;;;;;;5008257;28;19924;-64
2021/08/24 12:16:16;;;;;;;;;;;18.40;1.00;;;;;;5008249;28;20554;-66
2021/08/24 12:18:42;;;;;;;;;;;18.40;1.00;;;;;;5009715;28;19913;-65
2021/08/24 12:21:23;;;;;;;;;;;18.30;1.00;;;;;;5008817;28;20299;-65
2021/08/24 12:23:49;;;;;;;;;;;18.20;1.00;;;;;;5008137;28;19921;-65
2021/08/24 12:26:21;;;;;;;;;;;18.20;1.00;;;;;;5008821;28;19929;-65
2021/08/24 12:28:46;;;;;;;;;;;18.20;1.00;;;;;;5017496;28;19989;-65
2021/08/24 12:31:19;;;;;;;;;;;18.20;1.00;;;;;;5008232;28;20317;-65
2021/08/24 12:33:45;;;;;;;;;;;18.10;1.00;;;;;;5007770;28;19916;-65
2021/08/24 12:36:17;;;;;;;;;;;18.20;1.00;;;;;;5009095;28;19913;-64
2021/08/24 12:38:50;;;;;;;;;;;18.60;1.00;;;;;;5009236;28;20359;-64
2021/08/24 12:41:31;;;;;;;;;;;18.90;1.00;;;;;;5008394;28;19970;-65
2021/08/24 12:44:15;;;;;;;;;;;19.30;1.00;;;;;;5007780;28;19917;-64
2021/08/24 12:46:44;;;;;;;;;;;19.50;1.00;;;;;;4989009;28;19945;-63
2021/08/24 12:49:17;;;;;;;;;;;19.40;1.00;;;;;;4987985;28;19976;-64
2021/08/24 12:51:46;;;;;;;;;;;19.30;1.00;;;;;;5007872;28;20061;-65
2021/08/24 12:54:13;;;;;;;;;;;19.20;1.00;;;;;;5007859;28;19963;-66
2021/08/24 12:56:41;;;;;;;;;;;19.20;1.00;;;;;;5007825;28;20699;-64
2021/08/24 12:59:07;;;;;;;;;;;19.10;1.00;;;;;;5008317;28;19921;-64
2021/08/24 13:01:33;;;;;;;;;;;19.10;1.00;;;;;;5008087;28;19913;-65
2021/08/24 13:04:05;;;;;;;;;;;19.10;1.00;;;;;;5007874;28;19910;-66
2021/08/24 13:06:32;;;;;;;;;;;19.00;1.00;;;;;;5008321;28;20005;-64
2021/08/24 13:09:16;;;;;;;;;;;19.00;1.00;;;;;;5008988;28;20324;-64
2021/08/24 13:11:42;;;;;;;;;;;19.00;1.00;;;;;;4999390;28;19981;-64
2021/08/24 13:14:27;;;;;;;;;;;18.80;1.00;;;;;;4994011;28;20287;-65
2021/08/24 13:16:55;;;;;;;;;;;18.70;1.00;;;;;;5008096;28;19960;-66
2021/08/24 13:19:23;;;;;;;;;;;18.60;1.00;;;;;;5006831;28;19914;-65
2021/08/24 13:21:48;;;;;;;;;;;18.50;1.00;;;;;;4990950;28;19913;-66
2021/08/24 13:24:23;;;;;;;;;;;18.60;1.00;;;;;;4988602;28;19918;-65
2021/08/24 13:26:52;;;;;;;;;;;18.60;1.00;;;;;;4997254;28;20428;-65
2021/08/24 13:29:19;;;;;;;;;;;18.40;1.00;;;;;;5004564;28;20571;-66
2021/08/24 13:32:07;;;;;;;;;;;18.40;1.00;;;;;;5007015;28;19920;-64
2021/08/24 13:34:33;;;;;;;;;;;18.50;1.00;;;;;;4998469;28;19914;-66
2021/08/24 13:36:58;;;;;;;;;;;18.80;1.00;;;;;;5011896;28;19931;-65
2021/08/24 13:39:24;;;;;;;;;;;19.10;1.00;;;;;;5011868;28;19914;-66
2021/08/24 13:41:54;;;;;;;;;;;19.30;1.00;;;;;;5010737;28;19917;-64
2021/08/24 13:44:22;;;;;;;;;;;19.50;1.00;;;;;;5011851;28;19909;-65
2021/08/24 13:47:13;;;;;;;;;;;19.50;1.00;;;;;;5010977;28;19918;-65
2021/08/24 13:49:40;;;;;;;;;;;19.80;1.00;;;;;;5011866;28;19944;-64
2021/08/24 13:52:07;;;;;;;;;;;20.00;1.00;;;;;;5010959;28;19910;-64
2021/08/24 13:54:34;;;;;;;;;;;20.00;1.00;;;;;;4996150;28;19918;-66
2021/08/24 13:57:00;;;;;;;;;;;19.90;1.00;;;;;;4991787;28;20065;-66
2021/08/24 13:59:37;;;;;;;;;;;19.70;1.00;;;;;;4990965;28;20071;-66
2021/08/24 14:02:04;;;;;;;;;;;19.50;1.00;;;;;;4991457;28;19918;-65
2021/08/24 14:04:41;;;;;;;;;;;19.50;1.00;;;;;;4991626;28;19910;-65
2021/08/24 14:07:09;;;;;;;;;;;19.50;1.00;;;;;;4992013;28;19910;-66
2021/08/24 14:09:37;;;;;;;;;;;19.70;1.00;;;;;;5004446;28;19913;-65
2021/08/24 14:12:28;;;;;;;;;;;19.70;1.00;;;;;;5010629;28;20323;-63
2021/08/24 14:14:59;;;;;;;;;;;19.70;1.00;;;;;;5009395;28;20012;-66
2021/08/24 14:17:24;;;;;;;;;;;19.70;1.00;;;;;;5012111;28;19989;-65
2021/08/24 14:19:50;;;;;;;;;;;19.90;1.00;;;;;;5011756;28;20373;-64
2021/08/24 14:22:16;;;;;;;;;;;20.10;1.00;;;;;;5010619;28;19913;-65
2021/08/24 14:24:42;;;;;;;;;;;20.30;1.00;;;;;;5010667;28;19918;-65
2021/08/24 14:27:10;;;;;;;;;;;20.40;1.00;;;;;;5011227;28;19932;-64
2021/08/24 14:29:38;;;;;;;;;;;20.10;1.00;;;;;;5019159;28;20104;-66
2021/08/24 14:32:05;;;;;;;;;;;20.20;1.00;;;;;;5009983;28;19959;-65
2021/08/24 14:34:30;;;;;;;;;;;20.50;1.00;;;;;;5010819;28;20438;-64
2021/08/24 14:36:59;;;;;;;;;;;20.80;1.00;;;;;;5004408;28;19937;-65
2021/08/24 14:39:27;;;;;;;;;;;20.90;1.00;;;;;;5006754;28;19968;-66